Terminal Aerodrome Forecast
Issued by NWS

Home | Current Version | Previous Version | Text Only | Print | Product List | Glossary On
Versions: 1 2 3 4 5 6 7 8 9 10 11 12 13 14 15 16 17 18
000
FTUS42 KTAE 171700
TAFDHN
TAF
KDHN 171720Z 1718/1818 07012G18KT P6SM FEW021
     FM180300 08011KT P6SM BKN025
     FM180900 07013KT 5SM RA OVC008
     FM181200 07013G20KT 2SM +RA OVC007=

USA.gov is the U.S. government's official web portal to all federal, state and local government web resources and services.